Time;durP1;ratioP1;P1;durP2;ratioP2;P2;SDS_P1;SDS_P2;PMS_P1;PMS_P2;Temp;Humidity;BMP_temperature;BMP_pressure;BME280_temperature;BME280_humidity;BME280_pressure;Samples;Min_cycle;Max_cycle;Signal;HPM_P1;HPM_P2
2022/04/16 00:03:25;;;;;;;8.07;2.97;;;;;;;;;;10447830;28;20033;-43
2022/04/16 00:08:28;;;;;;;8.25;2.90;;;;;;;;;;10420225;28;20021;-44
2022/04/16 00:13:28;;;;;;;11.88;3.58;;;;;;;;;;10454672;28;20039;-44
2022/04/16 00:18:29;;;;;;;10.55;2.60;;;;;;;;;;10455156;28;20029;-44
2022/04/16 00:23:30;;;;;;;10.35;3.30;;;;;;;;;;10436947;28;20040;-43
2022/04/16 00:28:30;;;;;;;5.57;2.50;;;;;;;;;;10454919;28;20027;-56
2022/04/16 00:33:33;;;;;;;10.73;3.03;;;;;;;;;;10454139;28;20404;-51
2022/04/16 00:38:34;;;;;;;6.80;2.63;;;;;;;;;;10454602;28;20037;-45
2022/04/16 00:43:35;;;;;;;4.88;2.90;;;;;;;;;;10453981;28;20028;-52
2022/04/16 00:48:36;;;;;;;5.78;2.30;;;;;;;;;;10453850;28;20380;-44
2022/04/16 00:53:36;;;;;;;8.50;2.88;;;;;;;;;;10453858;28;20120;-44
2022/04/16 00:58:40;;;;;;;20.02;3.25;;;;;;;;;;10453025;28;20404;-49
2022/04/16 01:03:43;;;;;;;6.20;2.38;;;;;;;;;;10435881;28;20083;-43
2022/04/16 01:08:47;;;;;;;11.60;2.92;;;;;;;;;;10444940;28;20646;-44
2022/04/16 01:13:48;;;;;;;6.60;2.50;;;;;;;;;;10453020;28;20096;-46
2022/04/16 01:18:49;;;;;;;7.75;2.55;;;;;;;;;;10451971;28;20029;-52
2022/04/16 01:23:50;;;;;;;9.02;2.70;;;;;;;;;;10452729;28;20036;-53
2022/04/16 01:28:52;;;;;;;8.57;2.38;;;;;;;;;;10463997;28;20028;-43
2022/04/16 01:33:52;;;;;;;18.85;2.75;;;;;;;;;;10451666;28;20040;-43
2022/04/16 01:38:53;;;;;;;12.52;2.75;;;;;;;;;;10452019;28;20037;-49
2022/04/16 01:43:54;;;;;;;13.20;3.17;;;;;;;;;;10433073;28;20044;-48
2022/04/16 01:48:56;;;;;;;9.65;2.38;;;;;;;;;;10433763;28;20483;-50
2022/04/16 01:53:56;;;;;;;7.20;2.40;;;;;;;;;;10450718;28;20032;-52
2022/04/16 01:58:57;;;;;;;5.40;2.60;;;;;;;;;;10450962;28;20095;-52
2022/04/16 02:03:59;;;;;;;6.60;2.20;;;;;;;;;;10450913;28;20025;-51
2022/04/16 02:09:01;;;;;;;5.28;2.42;;;;;;;;;;10450149;28;20025;-50
2022/04/16 02:14:02;;;;;;;5.55;2.50;;;;;;;;;;10450458;28;20486;-44
2022/04/16 02:19:02;;;;;;;7.03;2.35;;;;;;;;;;10449387;28;20025;-48
2022/04/16 02:24:04;;;;;;;6.13;2.60;;;;;;;;;;10449213;28;20036;-50
2022/04/16 02:29:05;;;;;;;5.93;2.17;;;;;;;;;;10449168;28;20033;-51
2022/04/16 02:34:08;;;;;;;6.50;1.98;;;;;;;;;;10448794;28;20149;-50
2022/04/16 02:39:09;;;;;;;5.55;2.30;;;;;;;;;;10449143;28;20513;-43
2022/04/16 02:47:05;;;;;;;3.97;2.00;;;;;;;;;;10449429;28;20457;-44
2022/04/16 02:49:30;;;;;;;7.75;2.25;;;;;;;;;;10448434;28;20036;-51
2022/04/16 02:54:30;;;;;;;3.95;2.30;;;;;;;;;;10449074;28;20042;-44
2022/04/16 02:59:35;;;;;;;6.32;2.63;;;;;;;;;;10442266;28;20099;-43
2022/04/16 03:04:35;;;;;;;5.40;3.13;;;;;;;;;;10448725;28;20064;-46
2022/04/16 03:09:36;;;;;;;5.45;2.53;;;;;;;;;;10448122;28;20052;-44
2022/04/16 03:19:56;;;;;;;6.57;2.42;;;;;;;;;;10449124;28;20017;-43
2022/04/16 03:24:57;;;;;;;7.20;1.95;;;;;;;;;;10447801;28;20442;-43
2022/04/16 03:29:57;;;;;;;4.55;1.90;;;;;;;;;;10448683;28;20476;-45
2022/04/16 03:34:58;;;;;;;9.65;2.58;;;;;;;;;;10448538;28;20051;-43
2022/04/16 03:39:59;;;;;;;6.63;2.20;;;;;;;;;;10451172;28;20036;-42
2022/04/16 03:45:00;;;;;;;6.85;2.17;;;;;;;;;;10456527;28;20025;-44
2022/04/16 03:50:02;;;;;;;7.25;2.47;;;;;;;;;;10456370;28;20037;-46
2022/04/16 04:00:22;;;;;;;2.42;1.98;;;;;;;;;;10455032;28;20512;-46
2022/04/16 04:05:23;;;;;;;9.35;2.33;;;;;;;;;;10455471;28;20029;-44
2022/04/16 04:10:23;;;;;;;7.57;2.33;;;;;;;;;;10454302;28;20125;-54
2022/04/16 04:15:24;;;;;;;3.50;1.80;;;;;;;;;;10454408;28;20079;-45
2022/04/16 04:20:26;;;;;;;8.35;1.90;;;;;;;;;;10455336;28;20488;-44
2022/04/16 04:25:27;;;;;;;7.80;2.25;;;;;;;;;;10454125;28;20025;-54
2022/04/16 04:30:29;;;;;;;4.47;2.53;;;;;;;;;;10454077;28;20032;-57
2022/04/16 04:35:29;;;;;;;4.18;2.00;;;;;;;;;;10452689;28;20052;-51
2022/04/16 04:40:30;;;;;;;3.72;2.25;;;;;;;;;;10452068;28;20032;-44
2022/04/16 04:45:30;;;;;;;7.07;2.08;;;;;;;;;;10452447;28;20040;-43
2022/04/16 04:50:31;;;;;;;3.45;1.70;;;;;;;;;;10453175;28;20059;-55
2022/04/16 04:55:32;;;;;;;3.95;1.88;;;;;;;;;;10452224;28;20040;-52
2022/04/16 05:00:32;;;;;;;4.47;2.40;;;;;;;;;;10435480;28;20108;-47
2022/04/16 05:05:33;;;;;;;3.80;2.10;;;;;;;;;;10452501;28;20033;-44
2022/04/16 05:10:34;;;;;;;3.80;2.00;;;;;;;;;;10452863;28;20033;-48
2022/04/16 05:15:34;;;;;;;4.47;1.95;;;;;;;;;;10452119;28;20043;-44
2022/04/16 05:20:35;;;;;;;3.10;2.10;;;;;;;;;;10452663;28;20477;-52
2022/04/16 05:25:35;;;;;;;2.08;1.77;;;;;;;;;;10452092;28;20029;-42
2022/04/16 05:30:48;;;;;;;3.95;1.95;;;;;;;;;;10429568;28;20060;-45
2022/04/16 05:35:48;;;;;;;6.72;1.88;;;;;;;;;;10443605;28;20025;-54
2022/04/16 05:40:49;;;;;;;6.85;1.98;;;;;;;;;;10451533;28;20649;-48
2022/04/16 05:45:50;;;;;;;3.53;1.80;;;;;;;;;;10451826;28;20477;-48
2022/04/16 05:50:51;;;;;;;4.05;2.00;;;;;;;;;;10442486;28;20419;-48
2022/04/16 05:55:53;;;;;;;2.33;1.83;;;;;;;;;;10446729;28;20068;-43
2022/04/16 06:00:54;;;;;;;2.08;1.55;;;;;;;;;;10432565;28;20025;-48
2022/04/16 06:05:56;;;;;;;5.40;2.00;;;;;;;;;;10449171;28;20099;-49
2022/04/16 06:10:56;;;;;;;7.15;2.20;;;;;;;;;;10454331;28;20510;-42
2022/04/16 06:15:58;;;;;;;10.55;2.30;;;;;;;;;;10449728;28;20029;-46
2022/04/16 06:20:58;;;;;;;16.33;2.78;;;;;;;;;;10419819;28;20110;-47
2022/04/16 06:25:59;;;;;;;7.50;2.50;;;;;;;;;;10422559;28;20553;-45
2022/04/16 06:31:00;;;;;;;8.98;3.08;;;;;;;;;;10441019;28;20641;-45
2022/04/16 06:36:01;;;;;;;16.70;4.10;;;;;;;;;;10447761;28;20136;-46
2022/04/16 06:41:02;;;;;;;11.75;4.65;;;;;;;;;;10468108;28;20437;-42
2022/04/16 06:46:03;;;;;;;12.77;4.68;;;;;;;;;;10445488;28;20449;-40
2022/04/16 06:51:04;;;;;;;10.60;4.32;;;;;;;;;;10448440;28;20060;-42
2022/04/16 06:56:05;;;;;;;17.60;5.00;;;;;;;;;;10450704;28;20069;-42
2022/04/16 07:01:05;;;;;;;13.15;4.10;;;;;;;;;;10447764;28;20483;-44
2022/04/16 07:06:06;;;;;;;26.35;4.88;;;;;;;;;;10448820;28;20025;-42
2022/04/16 07:11:06;;;;;;;13.52;4.30;;;;;;;;;;10449114;28;20025;-42
2022/04/16 07:16:07;;;;;;;8.95;3.55;;;;;;;;;;10454149;28;20028;-46
2022/04/16 07:21:08;;;;;;;12.50;3.72;;;;;;;;;;10457170;28;20044;-43
2022/04/16 07:26:08;;;;;;;15.27;4.55;;;;;;;;;;10433595;28;20033;-43
2022/04/16 07:31:09;;;;;;;11.75;4.00;;;;;;;;;;10415862;28;20036;-42
2022/04/16 07:36:09;;;;;;;17.33;4.50;;;;;;;;;;10415888;28;20079;-42
2022/04/16 07:41:10;;;;;;;11.02;3.70;;;;;;;;;;10395342;28;20029;-43
2022/04/16 07:46:11;;;;;;;11.57;3.97;;;;;;;;;;10415677;28;20623;-56
2022/04/16 07:51:11;;;;;;;10.93;3.80;;;;;;;;;;10438384;28;20051;-42
2022/04/16 07:56:12;;;;;;;8.10;3.50;;;;;;;;;;10453242;28;20056;-43
2022/04/16 08:01:13;;;;;;;14.82;4.40;;;;;;;;;;10423259;28;20029;-52
2022/04/16 08:06:14;;;;;;;19.23;3.78;;;;;;;;;;10455076;28;20041;-54
2022/04/16 08:11:14;;;;;;;8.85;3.78;;;;;;;;;;10455199;28;20109;-43
2022/04/16 08:16:15;;;;;;;12.52;3.28;;;;;;;;;;10455361;28;20063;-42
2022/04/16 08:21:15;;;;;;;12.25;4.03;;;;;;;;;;10455046;28;20059;-44
2022/04/16 08:26:16;;;;;;;21.40;3.60;;;;;;;;;;10453515;28;20017;-48
2022/04/16 08:31:17;;;;;;;25.45;4.78;;;;;;;;;;10454641;28;20059;-50
2022/04/16 08:36:17;;;;;;;23.30;4.40;;;;;;;;;;10436814;28;20025;-52
2022/04/16 08:41:18;;;;;;;14.52;5.03;;;;;;;;;;10454080;28;20044;-42
2022/04/16 08:46:19;;;;;;;20.30;4.15;;;;;;;;;;10436439;28;20033;-44
2022/04/16 08:51:20;;;;;;;28.20;4.90;;;;;;;;;;10453799;28;20033;-51
2022/04/16 08:56:21;;;;;;;9.90;4.78;;;;;;;;;;10453207;28;20045;-53
2022/04/16 09:01:22;;;;;;;13.90;5.13;;;;;;;;;;10435416;28;20032;-44
2022/04/16 09:06:23;;;;;;;23.33;4.25;;;;;;;;;;10453165;28;20021;-43
2022/04/16 09:11:25;;;;;;;13.82;4.85;;;;;;;;;;10453107;28;20059;-51
2022/04/16 09:16:25;;;;;;;21.70;5.07;;;;;;;;;;10450860;28;20021;-54
2022/04/16 09:21:28;;;;;;;13.93;4.28;;;;;;;;;;10410372;28;20041;-47
2022/04/16 09:26:35;;;;;;;14.48;4.97;;;;;;;;;;10409347;28;20029;-43
2022/04/16 09:31:40;;;;;;;17.15;5.55;;;;;;;;;;10451168;28;20480;-47
2022/04/16 09:36:43;;;;;;;19.00;5.05;;;;;;;;;;10451898;28;20563;-45
2022/04/16 09:41:51;;;;;;;16.05;4.70;;;;;;;;;;10452014;28;20087;-42
2022/04/16 09:46:53;;;;;;;16.05;4.57;;;;;;;;;;10451871;28;20036;-43
2022/04/16 09:51:57;;;;;;;21.83;5.85;;;;;;;;;;10451516;28;20064;-49
2022/04/16 09:57:01;;;;;;;14.13;5.28;;;;;;;;;;10416513;28;20041;-48
2022/04/16 10:02:03;;;;;;;13.15;5.10;;;;;;;;;;10450977;28;20044;-42
2022/04/16 10:07:05;;;;;;;11.45;4.78;;;;;;;;;;10450231;28;20500;-45
2022/04/16 10:17:42;;;;;;;12.60;4.80;;;;;;;;;;10449968;28;20033;-48
2022/04/16 10:22:57;;;;;;;6.80;4.25;;;;;;;;;;10450156;28;20075;-44
2022/04/16 10:28:08;;;;;;;13.65;5.35;;;;;;;;;;10432123;28;20510;-48
2022/04/16 10:33:21;;;;;;;15.60;4.82;;;;;;;;;;10448921;28;20033;-43
2022/04/16 10:38:23;;;;;;;5.43;4.28;;;;;;;;;;10432181;28;20495;-43
2022/04/16 10:43:33;;;;;;;9.40;4.57;;;;;;;;;;10449993;28;20040;-44
2022/04/16 10:48:39;;;;;;;6.82;4.35;;;;;;;;;;10417550;28;20432;-42
2022/04/16 10:53:40;;;;;;;12.02;4.82;;;;;;;;;;10392654;28;20484;-45
2022/04/16 10:58:42;;;;;;;13.55;4.60;;;;;;;;;;10405060;28;20053;-43
2022/04/16 11:03:48;;;;;;;13.25;5.38;;;;;;;;;;10433356;28;20090;-43
2022/04/16 11:08:49;;;;;;;18.35;6.18;;;;;;;;;;10431475;28;20028;-42
2022/04/16 11:13:51;;;;;;;15.27;6.65;;;;;;;;;;10431347;28;20029;-43
2022/04/16 11:18:51;;;;;;;16.58;6.53;;;;;;;;;;10448696;28;20029;-42
2022/04/16 11:23:53;;;;;;;11.73;6.07;;;;;;;;;;10448986;28;20040;-44
2022/04/16 11:34:14;;;;;;;8.23;5.30;;;;;;;;;;10448355;28;20033;-44
2022/04/16 11:39:23;;;;;;;16.92;5.05;;;;;;;;;;10409450;28;20037;-55
2022/04/16 11:44:54;;;;;;;10.13;4.95;;;;;;;;;;10407481;28;20527;-51
2022/04/16 11:49:59;;;;;;;8.52;4.80;;;;;;;;;;10318673;28;20573;-42
2022/04/16 11:55:07;;;;;;;11.82;4.68;;;;;;;;;;10324159;28;20038;-43
2022/04/16 12:00:10;;;;;;;13.10;4.20;;;;;;;;;;10361557;28;20065;-56
2022/04/16 12:05:25;;;;;;;7.80;4.18;;;;;;;;;;10367204;28;20097;-50
2022/04/16 12:10:26;;;;;;;8.05;4.18;;;;;;;;;;10341117;28;20206;-43
2022/04/16 12:15:29;;;;;;;14.30;4.15;;;;;;;;;;10341464;28;20100;-51
2022/04/16 12:20:29;;;;;;;9.15;3.70;;;;;;;;;;10330964;28;20065;-44
2022/04/16 12:25:30;;;;;;;11.98;3.83;;;;;;;;;;10378424;28;20040;-50
2022/04/16 12:30:32;;;;;;;17.38;4.47;;;;;;;;;;10425045;28;20021;-52
2022/04/16 12:35:38;;;;;;;13.48;4.03;;;;;;;;;;10453901;28;20032;-52
2022/04/16 12:40:39;;;;;;;10.20;3.72;;;;;;;;;;10454525;28;20053;-49
2022/04/16 12:45:39;;;;;;;8.45;3.75;;;;;;;;;;10453330;28;20388;-48
2022/04/16 12:50:41;;;;;;;7.13;3.47;;;;;;;;;;10451505;28;20391;-45
2022/04/16 12:55:42;;;;;;;7.00;3.75;;;;;;;;;;10435464;28;20449;-51
2022/04/16 13:00:46;;;;;;;4.93;3.10;;;;;;;;;;10453750;28;20029;-50
2022/04/16 13:05:47;;;;;;;6.72;3.00;;;;;;;;;;10452338;28;20021;-44
2022/04/16 13:10:47;;;;;;;8.18;3.25;;;;;;;;;;10434651;28;20033;-44
2022/04/16 13:15:48;;;;;;;5.63;3.30;;;;;;;;;;10440896;28;20025;-46
2022/04/16 13:20:49;;;;;;;5.88;2.72;;;;;;;;;;10450350;28;20036;-50
2022/04/16 13:26:10;;;;;;;3.78;3.17;;;;;;;;;;10429780;28;20032;-48
2022/04/16 13:31:11;;;;;;;4.82;2.92;;;;;;;;;;10443970;28;20112;-46
2022/04/16 13:36:12;;;;;;;6.88;3.00;;;;;;;;;;10469944;28;20571;-47
2022/04/16 13:41:45;;;;;;;8.18;2.80;;;;;;;;;;10431716;28;20090;-47
2022/04/16 13:46:39;;;;;;;6.35;3.33;;;;;;;;;;10434287;28;20037;-42
2022/04/16 13:51:40;;;;;;;11.55;2.85;;;;;;;;;;10450630;28;20047;-42
2022/04/16 13:56:40;;;;;;;8.32;3.05;;;;;;;;;;10450850;28;20496;-42
2022/04/16 14:01:41;;;;;;;9.52;2.88;;;;;;;;;;10443113;28;20044;-41
2022/04/16 14:06:42;;;;;;;6.95;2.80;;;;;;;;;;10429059;28;20095;-48
2022/04/16 14:11:44;;;;;;;6.20;2.90;;;;;;;;;;10433116;28;20053;-42
2022/04/16 14:16:45;;;;;;;7.43;2.85;;;;;;;;;;10433343;28;20034;-41
2022/04/16 14:21:45;;;;;;;9.50;2.60;;;;;;;;;;10426786;28;20025;-46
2022/04/16 14:26:46;;;;;;;7.78;2.58;;;;;;;;;;10443684;28;20036;-42
2022/04/16 14:31:47;;;;;;;5.85;2.92;;;;;;;;;;10449628;28;20032;-44
2022/04/16 14:36:47;;;;;;;9.98;2.58;;;;;;;;;;10449952;28;20024;-45
2022/04/16 14:41:48;;;;;;;7.45;3.08;;;;;;;;;;10442930;28;20021;-42
2022/04/16 14:46:50;;;;;;;5.75;3.13;;;;;;;;;;10449625;28;20067;-45
2022/04/16 14:51:55;;;;;;;10.18;2.75;;;;;;;;;;10447686;28;20033;-42
2022/04/16 14:56:56;;;;;;;6.28;2.70;;;;;;;;;;10448888;28;20045;-47
2022/04/16 15:01:59;;;;;;;7.80;2.90;;;;;;;;;;10430488;28;20665;-42
2022/04/16 15:06:59;;;;;;;8.75;2.60;;;;;;;;;;10444764;28;20021;-41
2022/04/16 15:12:03;;;;;;;7.85;2.72;;;;;;;;;;10433842;28;20304;-48
2022/04/16 15:17:03;;;;;;;2.38;1.95;;;;;;;;;;10411309;28;20394;-51
2022/04/16 15:22:05;;;;;;;8.73;3.00;;;;;;;;;;10426545;28;20037;-41
2022/04/16 15:27:05;;;;;;;11.23;2.75;;;;;;;;;;10425603;28;20044;-48
2022/04/16 15:32:06;;;;;;;10.63;2.38;;;;;;;;;;10420669;28;20025;-50
2022/04/16 15:37:07;;;;;;;4.68;2.40;;;;;;;;;;10451838;28;20074;-49
2022/04/16 15:42:08;;;;;;;5.50;2.47;;;;;;;;;;10457728;28;20029;-41
2022/04/16 15:47:08;;;;;;;8.88;3.03;;;;;;;;;;10456214;28;20055;-52
2022/04/16 15:52:09;;;;;;;6.15;2.85;;;;;;;;;;10455605;28;20037;-42
2022/04/16 15:57:14;;;;;;;4.00;2.45;;;;;;;;;;10449101;28;20120;-43
2022/04/16 16:02:15;;;;;;;11.57;2.90;;;;;;;;;;10434291;28;20559;-48
2022/04/16 16:07:15;;;;;;;8.13;2.33;;;;;;;;;;10438912;28;20043;-43
2022/04/16 16:12:17;;;;;;;7.93;2.08;;;;;;;;;;10451413;28;20032;-44
2022/04/16 16:17:18;;;;;;;5.28;2.30;;;;;;;;;;10453109;28;20494;-47
2022/04/16 16:22:21;;;;;;;11.52;2.72;;;;;;;;;;10454580;28;20024;-43
2022/04/16 16:27:23;;;;;;;9.70;2.58;;;;;;;;;;10453331;28;20030;-48
2022/04/16 16:32:28;;;;;;;7.53;1.90;;;;;;;;;;10441807;28;20056;-43
2022/04/16 16:37:28;;;;;;;6.88;2.08;;;;;;;;;;10440486;28;20057;-49
2022/04/16 16:42:29;;;;;;;4.80;2.38;;;;;;;;;;10421596;28;20029;-43
2022/04/16 16:47:30;;;;;;;7.22;3.00;;;;;;;;;;10452553;28;20021;-43
2022/04/16 16:52:34;;;;;;;6.57;2.20;;;;;;;;;;10453629;28;20017;-43
2022/04/16 16:57:37;;;;;;;5.50;2.03;;;;;;;;;;10437634;28;20614;-41
2022/04/16 17:07:57;;;;;;;11.85;2.60;;;;;;;;;;10438893;28;20075;-42
2022/04/16 17:12:57;;;;;;;3.95;2.40;;;;;;;;;;10449518;28;20029;-47
2022/04/16 17:23:17;;;;;;;5.95;2.17;;;;;;;;;;10456950;28;20025;-45
2022/04/16 17:28:18;;;;;;;9.52;2.88;;;;;;;;;;10428408;28;20037;-50
2022/04/16 17:33:20;;;;;;;4.22;2.45;;;;;;;;;;10416695;28;20041;-47
2022/04/16 17:38:21;;;;;;;6.53;2.65;;;;;;;;;;10414268;28;20515;-41
2022/04/16 17:43:25;;;;;;;8.80;2.58;;;;;;;;;;10415999;28;20394;-41
2022/04/16 17:48:27;;;;;;;30.92;3.60;;;;;;;;;;10434528;28;20025;-48
2022/04/16 17:53:28;;;;;;;17.67;3.38;;;;;;;;;;10450856;28;20036;-45
2022/04/16 17:58:28;;;;;;;10.68;3.17;;;;;;;;;;10451076;28;20037;-48
2022/04/16 18:03:29;;;;;;;14.52;3.53;;;;;;;;;;10450179;28;20446;-41
2022/04/16 18:08:30;;;;;;;17.98;3.55;;;;;;;;;;10433083;28;20021;-41
2022/04/16 18:13:30;;;;;;;7.72;2.53;;;;;;;;;;10432783;28;20029;-41
2022/04/16 18:18:32;;;;;;;7.65;3.17;;;;;;;;;;10450201;28;20036;-49
2022/04/16 18:23:32;;;;;;;11.90;3.00;;;;;;;;;;10450116;28;20694;-45
2022/04/16 18:28:33;;;;;;;8.68;2.80;;;;;;;;;;10450183;28;20025;-41
2022/04/16 18:33:34;;;;;;;9.13;2.90;;;;;;;;;;10449828;28;20358;-41
2022/04/16 18:38:34;;;;;;;10.05;2.85;;;;;;;;;;10431234;28;20119;-48
2022/04/16 18:43:35;;;;;;;10.35;3.08;;;;;;;;;;10448694;28;20065;-41
2022/04/16 18:48:37;;;;;;;13.35;3.42;;;;;;;;;;10423721;28;20472;-41
2022/04/16 18:53:39;;;;;;;13.70;3.38;;;;;;;;;;10438917;28;20036;-41
2022/04/16 18:58:40;;;;;;;8.70;2.88;;;;;;;;;;10448958;28;20057;-54
2022/04/16 19:09:00;;;;;;;14.63;3.00;;;;;;;;;;10448767;28;20435;-51
2022/04/16 19:14:02;;;;;;;5.75;2.63;;;;;;;;;;10457115;28;20041;-50
2022/04/16 19:19:03;;;;;;;9.02;3.05;;;;;;;;;;10457211;28;20580;-42
2022/04/16 19:24:04;;;;;;;8.75;2.97;;;;;;;;;;10457192;28;20028;-42
2022/04/16 19:29:05;;;;;;;5.03;2.67;;;;;;;;;;10456648;28;20029;-53
2022/04/16 19:34:07;;;;;;;8.45;2.83;;;;;;;;;;10456724;28;20531;-42
2022/04/16 19:39:08;;;;;;;10.90;2.67;;;;;;;;;;10456758;28;20027;-53
2022/04/16 19:44:08;;;;;;;10.25;2.97;;;;;;;;;;10456073;28;20051;-54
2022/04/16 19:49:09;;;;;;;6.22;2.35;;;;;;;;;;10438396;28;20045;-51
2022/04/16 19:54:11;;;;;;;11.80;3.17;;;;;;;;;;10455569;28;20040;-57
2022/04/16 19:59:13;;;;;;;5.30;2.88;;;;;;;;;;10441626;22;20077;-38
2022/04/16 20:04:13;;;;;;;13.63;2.70;;;;;;;;;;10447179;28;20063;-43
2022/04/16 20:14:33;;;;;;;11.25;2.67;;;;;;;;;;10455288;28;20045;-44
2022/04/16 20:19:34;;;;;;;9.15;2.75;;;;;;;;;;10454703;28;20024;-46
2022/04/16 20:24:34;;;;;;;4.38;2.08;;;;;;;;;;10454956;28;20051;-43
2022/04/16 20:29:35;;;;;;;4.70;2.63;;;;;;;;;;10454341;28;20114;-44
2022/04/16 20:34:36;;;;;;;8.77;2.50;;;;;;;;;;10454420;28;20384;-45
2022/04/16 20:50:16;;;;;;;4.43;2.08;;;;;;;;;;10453493;28;20033;-47
2022/04/16 20:55:17;;;;;;;7.60;2.75;;;;;;;;;;10453213;28;20476;-44
2022/04/16 21:00:17;;;;;;;11.63;2.38;;;;;;;;;;10453101;28;20037;-45
2022/04/16 21:05:18;;;;;;;5.60;2.08;;;;;;;;;;10443803;28;20025;-47
2022/04/16 21:10:19;;;;;;;6.82;2.58;;;;;;;;;;10441212;28;20044;-46
2022/04/16 21:15:19;;;;;;;5.65;2.42;;;;;;;;;;10446445;28;20378;-46
2022/04/16 21:20:20;;;;;;;10.90;2.10;;;;;;;;;;10434778;28;20044;-46
2022/04/16 21:25:21;;;;;;;5.40;3.25;;;;;;;;;;10451609;28;20025;-46
2022/04/16 21:30:21;;;;;;;8.10;3.08;;;;;;;;;;10436353;28;20105;-47
2022/04/16 21:35:22;;;;;;;20.17;2.92;;;;;;;;;;10408555;28;20607;-46
2022/04/16 21:40:23;;;;;;;14.63;3.47;;;;;;;;;;10417057;28;20042;-47
2022/04/16 21:45:24;;;;;;;17.70;3.30;;;;;;;;;;10439893;28;20032;-45
2022/04/16 21:50:25;;;;;;;14.55;3.17;;;;;;;;;;10451155;28;20079;-44
2022/04/16 21:55:25;;;;;;;11.57;3.25;;;;;;;;;;10450951;28;20036;-46
2022/04/16 22:00:38;;;;;;;8.75;2.83;;;;;;;;;;10450678;28;20033;-44
2022/04/16 22:05:39;;;;;;;8.43;2.83;;;;;;;;;;10451010;28;20025;-46
2022/04/16 22:10:40;;;;;;;11.18;2.78;;;;;;;;;;10450426;28;20484;-45
2022/04/16 22:15:40;;;;;;;11.38;3.15;;;;;;;;;;10449970;28;20033;-44
2022/04/16 22:20:41;;;;;;;13.90;3.25;;;;;;;;;;10450267;28;20040;-46
2022/04/16 22:25:42;;;;;;;9.90;2.58;;;;;;;;;;10449429;28;20104;-46
2022/04/16 22:30:44;;;;;;;11.45;2.70;;;;;;;;;;10449470;28;20067;-46
2022/04/16 22:35:44;;;;;;;15.75;3.33;;;;;;;;;;10448710;28;20037;-45
2022/04/16 22:41:02;;;;;;;8.15;2.40;;;;;;;;;;10458032;28;20033;-47
2022/04/16 22:46:04;;;;;;;9.25;2.55;;;;;;;;;;10409466;28;20040;-46
2022/04/16 22:51:07;;;;;;;13.30;3.35;;;;;;;;;;10417560;28;20033;-44
2022/04/16 22:56:07;;;;;;;5.70;2.55;;;;;;;;;;10448824;28;20130;-46
2022/04/16 23:01:08;;;;;;;6.88;2.83;;;;;;;;;;10421204;28;20029;-46
2022/04/16 23:06:09;;;;;;;6.72;2.70;;;;;;;;;;10432815;28;20037;-47
2022/04/16 23:11:10;;;;;;;10.23;2.72;;;;;;;;;;10433484;28;20064;-46
2022/04/16 23:21:31;;;;;;;8.23;2.45;;;;;;;;;;10443539;28;20116;-47
2022/04/16 23:26:32;;;;;;;7.45;3.00;;;;;;;;;;10445962;28;20040;-39
2022/04/16 23:31:32;;;;;;;7.55;2.13;;;;;;;;;;10435395;28;20392;-42
2022/04/16 23:36:33;;;;;;;13.48;2.45;;;;;;;;;;10436781;28;20611;-49
2022/04/16 23:41:33;;;;;;;10.50;3.00;;;;;;;;;;10425050;28;20034;-47
2022/04/16 23:51:53;;;;;;;9.77;2.30;;;;;;;;;;10446265;28;20465;-45
2022/04/16 23:56:54;;;;;;;7.50;2.22;;;;;;;;;;10432835;28;20052;-47
